sensor_id;sensor_type;location;lat;lon;timestamp;P1;durP1;ratioP1;P2;durP2;ratioP2
52104;SDS011;38103;42.776;23.112;2023-04-24T00:00:20;18.00;;;10.50;;
52104;SDS011;38103;42.776;23.112;2023-04-24T00:02:45;19.48;;;11.10;;
52104;SDS011;38103;42.776;23.112;2023-04-24T00:05:12;17.48;;;10.27;;
52104;SDS011;38103;42.776;23.112;2023-04-24T00:07:40;17.17;;;9.90;;
52104;SDS011;38103;42.776;23.112;2023-04-24T00:10:07;16.55;;;9.55;;
52104;SDS011;38103;42.776;23.112;2023-04-24T00:12:33;20.13;;;11.52;;
52104;SDS011;38103;42.776;23.112;2023-04-24T00:14:58;21.20;;;10.23;;
52104;SDS011;38103;42.776;23.112;2023-04-24T00:17:24;21.55;;;11.80;;
52104;SDS011;38103;42.776;23.112;2023-04-24T00:19:49;19.02;;;10.40;;
52104;SDS011;38103;42.776;23.112;2023-04-24T00:22:16;19.20;;;11.55;;
52104;SDS011;38103;42.776;23.112;2023-04-24T00:24:42;19.40;;;11.20;;
52104;SDS011;38103;42.776;23.112;2023-04-24T00:27:07;17.95;;;10.90;;
52104;SDS011;38103;42.776;23.112;2023-04-24T00:29:33;19.00;;;10.85;;
52104;SDS011;38103;42.776;23.112;2023-04-24T00:31:58;20.42;;;11.27;;
52104;SDS011;38103;42.776;23.112;2023-04-24T00:34:23;20.60;;;10.82;;
52104;SDS011;38103;42.776;23.112;2023-04-24T00:36:49;22.77;;;11.15;;
52104;SDS011;38103;42.776;23.112;2023-04-24T00:39:17;23.27;;;12.45;;
52104;SDS011;38103;42.776;23.112;2023-04-24T00:41:45;21.88;;;12.80;;
52104;SDS011;38103;42.776;23.112;2023-04-24T00:44:12;22.30;;;12.82;;
52104;SDS011;38103;42.776;23.112;2023-04-24T00:46:37;20.50;;;12.10;;
52104;SDS011;38103;42.776;23.112;2023-04-24T00:49:03;26.73;;;12.85;;
52104;SDS011;38103;42.776;23.112;2023-04-24T00:51:30;22.33;;;12.23;;
52104;SDS011;38103;42.776;23.112;2023-04-24T00:53:57;22.35;;;12.27;;
52104;SDS011;38103;42.776;23.112;2023-04-24T00:56:23;20.35;;;12.93;;
52104;SDS011;38103;42.776;23.112;2023-04-24T00:58:49;22.55;;;12.13;;
52104;SDS011;38103;42.776;23.112;2023-04-24T01:01:14;21.73;;;11.95;;
52104;SDS011;38103;42.776;23.112;2023-04-24T01:03:40;20.40;;;12.48;;
52104;SDS011;38103;42.776;23.112;2023-04-24T01:06:06;23.52;;;11.93;;
52104;SDS011;38103;42.776;23.112;2023-04-24T01:08:32;21.40;;;12.65;;
52104;SDS011;38103;42.776;23.112;2023-04-24T01:10:58;22.45;;;12.50;;
52104;SDS011;38103;42.776;23.112;2023-04-24T01:13:23;21.90;;;13.60;;
52104;SDS011;38103;42.776;23.112;2023-04-24T01:15:49;29.45;;;15.50;;
52104;SDS011;38103;42.776;23.112;2023-04-24T01:18:15;25.50;;;12.93;;
52104;SDS011;38103;42.776;23.112;2023-04-24T01:20:41;18.58;;;11.85;;
52104;SDS011;38103;42.776;23.112;2023-04-24T01:23:08;21.67;;;13.07;;
52104;SDS011;38103;42.776;23.112;2023-04-24T01:25:34;22.13;;;13.20;;
52104;SDS011;38103;42.776;23.112;2023-04-24T01:28:00;22.38;;;12.38;;
52104;SDS011;38103;42.776;23.112;2023-04-24T01:30:26;23.55;;;12.15;;
52104;SDS011;38103;42.776;23.112;2023-04-24T01:32:52;20.83;;;13.00;;
52104;SDS011;38103;42.776;23.112;2023-04-24T01:35:18;20.98;;;12.40;;
52104;SDS011;38103;42.776;23.112;2023-04-24T01:37:44;26.38;;;13.07;;
52104;SDS011;38103;42.776;23.112;2023-04-24T01:40:10;22.42;;;11.35;;
52104;SDS011;38103;42.776;23.112;2023-04-24T01:42:35;23.35;;;13.35;;
52104;SDS011;38103;42.776;23.112;2023-04-24T01:45:02;23.10;;;12.05;;
52104;SDS011;38103;42.776;23.112;2023-04-24T01:47:29;26.52;;;12.25;;
52104;SDS011;38103;42.776;23.112;2023-04-24T01:49:55;22.42;;;12.15;;
52104;SDS011;38103;42.776;23.112;2023-04-24T01:52:20;21.15;;;11.70;;
52104;SDS011;38103;42.776;23.112;2023-04-24T01:54:46;27.52;;;12.40;;
52104;SDS011;38103;42.776;23.112;2023-04-24T01:57:12;20.80;;;12.23;;
52104;SDS011;38103;42.776;23.112;2023-04-24T01:59:38;20.65;;;12.50;;
52104;SDS011;38103;42.776;23.112;2023-04-24T02:02:04;22.83;;;12.98;;
52104;SDS011;38103;42.776;23.112;2023-04-24T02:04:29;19.83;;;12.23;;
52104;SDS011;38103;42.776;23.112;2023-04-24T02:06:55;21.60;;;11.93;;
52104;SDS011;38103;42.776;23.112;2023-04-24T02:09:20;21.48;;;11.50;;
52104;SDS011;38103;42.776;23.112;2023-04-24T02:11:45;19.60;;;11.60;;
52104;SDS011;38103;42.776;23.112;2023-04-24T02:14:11;19.80;;;11.15;;
52104;SDS011;38103;42.776;23.112;2023-04-24T02:16:36;23.98;;;12.27;;
52104;SDS011;38103;42.776;23.112;2023-04-24T02:19:02;21.23;;;11.23;;
52104;SDS011;38103;42.776;23.112;2023-04-24T02:21:27;24.92;;;12.93;;
52104;SDS011;38103;42.776;23.112;2023-04-24T02:23:53;19.77;;;11.50;;
52104;SDS011;38103;42.776;23.112;2023-04-24T02:26:19;21.75;;;11.98;;
52104;SDS011;38103;42.776;23.112;2023-04-24T02:28:44;20.35;;;12.35;;
52104;SDS011;38103;42.776;23.112;2023-04-24T02:31:10;21.60;;;11.65;;
52104;SDS011;38103;42.776;23.112;2023-04-24T02:33:35;19.73;;;11.18;;
52104;SDS011;38103;42.776;23.112;2023-04-24T02:36:01;22.00;;;11.05;;
52104;SDS011;38103;42.776;23.112;2023-04-24T02:38:27;21.58;;;10.68;;
52104;SDS011;38103;42.776;23.112;2023-04-24T02:40:53;20.70;;;10.38;;
52104;SDS011;38103;42.776;23.112;2023-04-24T02:43:18;20.73;;;10.73;;
52104;SDS011;38103;42.776;23.112;2023-04-24T02:45:44;20.65;;;10.88;;
52104;SDS011;38103;42.776;23.112;2023-04-24T02:48:09;21.55;;;11.52;;
52104;SDS011;38103;42.776;23.112;2023-04-24T02:50:35;23.27;;;11.55;;
52104;SDS011;38103;42.776;23.112;2023-04-24T02:53:00;22.98;;;11.60;;
52104;SDS011;38103;42.776;23.112;2023-04-24T02:55:25;21.13;;;11.20;;
52104;SDS011;38103;42.776;23.112;2023-04-24T02:57:51;22.98;;;11.80;;
52104;SDS011;38103;42.776;23.112;2023-04-24T03:00:16;20.42;;;11.65;;
52104;SDS011;38103;42.776;23.112;2023-04-24T03:02:42;21.95;;;12.35;;
52104;SDS011;38103;42.776;23.112;2023-04-24T03:05:07;21.73;;;13.10;;
52104;SDS011;38103;42.776;23.112;2023-04-24T03:07:34;25.83;;;11.73;;
52104;SDS011;38103;42.776;23.112;2023-04-24T03:09:59;23.88;;;12.48;;
52104;SDS011;38103;42.776;23.112;2023-04-24T03:12:24;27.40;;;12.77;;
52104;SDS011;38103;42.776;23.112;2023-04-24T03:14:50;22.10;;;12.48;;
52104;SDS011;38103;42.776;23.112;2023-04-24T03:17:15;21.70;;;12.60;;
52104;SDS011;38103;42.776;23.112;2023-04-24T03:19:41;20.83;;;12.77;;
52104;SDS011;38103;42.776;23.112;2023-04-24T03:22:06;25.15;;;13.40;;
52104;SDS011;38103;42.776;23.112;2023-04-24T03:24:34;20.08;;;11.77;;
52104;SDS011;38103;42.776;23.112;2023-04-24T03:26:59;20.63;;;11.18;;
52104;SDS011;38103;42.776;23.112;2023-04-24T03:29:25;25.25;;;11.52;;
52104;SDS011;38103;42.776;23.112;2023-04-24T03:31:50;20.35;;;11.75;;
52104;SDS011;38103;42.776;23.112;2023-04-24T03:34:15;20.10;;;10.73;;
52104;SDS011;38103;42.776;23.112;2023-04-24T03:36:41;20.90;;;12.07;;
52104;SDS011;38103;42.776;23.112;2023-04-24T03:39:06;21.83;;;12.38;;
52104;SDS011;38103;42.776;23.112;2023-04-24T03:41:32;20.48;;;11.38;;
52104;SDS011;38103;42.776;23.112;2023-04-24T03:43:58;20.27;;;11.77;;
52104;SDS011;38103;42.776;23.112;2023-04-24T03:46:23;18.92;;;11.18;;
52104;SDS011;38103;42.776;23.112;2023-04-24T03:48:49;20.50;;;12.10;;
52104;SDS011;38103;42.776;23.112;2023-04-24T03:51:14;20.63;;;12.85;;
52104;SDS011;38103;42.776;23.112;2023-04-24T03:53:39;20.88;;;11.02;;
52104;SDS011;38103;42.776;23.112;2023-04-24T03:56:05;20.08;;;11.23;;
52104;SDS011;38103;42.776;23.112;2023-04-24T03:58:30;20.42;;;10.25;;
52104;SDS011;38103;42.776;23.112;2023-04-24T04:00:56;19.77;;;10.93;;
52104;SDS011;38103;42.776;23.112;2023-04-24T04:03:23;19.35;;;10.40;;
52104;SDS011;38103;42.776;23.112;2023-04-24T04:05:48;17.75;;;10.40;;
52104;SDS011;38103;42.776;23.112;2023-04-24T04:08:14;22.05;;;10.05;;
52104;SDS011;38103;42.776;23.112;2023-04-24T04:10:39;18.17;;;9.93;;
52104;SDS011;38103;42.776;23.112;2023-04-24T04:13:05;17.83;;;9.70;;
52104;SDS011;38103;42.776;23.112;2023-04-24T04:15:31;19.67;;;9.55;;
52104;SDS011;38103;42.776;23.112;2023-04-24T04:17:57;24.98;;;10.13;;
52104;SDS011;38103;42.776;23.112;2023-04-24T04:20:22;19.20;;;9.75;;
52104;SDS011;38103;42.776;23.112;2023-04-24T04:22:48;18.08;;;10.43;;
52104;SDS011;38103;42.776;23.112;2023-04-24T04:25:13;17.65;;;9.73;;
52104;SDS011;38103;42.776;23.112;2023-04-24T04:27:39;18.45;;;10.00;;
52104;SDS011;38103;42.776;23.112;2023-04-24T04:30:06;16.48;;;9.25;;
52104;SDS011;38103;42.776;23.112;2023-04-24T04:32:33;19.70;;;10.65;;
52104;SDS011;38103;42.776;23.112;2023-04-24T04:35:02;22.48;;;10.55;;
52104;SDS011;38103;42.776;23.112;2023-04-24T04:37:29;17.80;;;10.60;;
52104;SDS011;38103;42.776;23.112;2023-04-24T04:39:54;20.02;;;9.27;;
52104;SDS011;38103;42.776;23.112;2023-04-24T04:42:20;17.15;;;9.60;;
52104;SDS011;38103;42.776;23.112;2023-04-24T04:44:46;17.45;;;9.50;;
52104;SDS011;38103;42.776;23.112;2023-04-24T04:47:11;16.85;;;9.25;;
52104;SDS011;38103;42.776;23.112;2023-04-24T04:49:37;17.63;;;9.27;;
52104;SDS011;38103;42.776;23.112;2023-04-24T04:52:03;22.45;;;9.38;;
52104;SDS011;38103;42.776;23.112;2023-04-24T04:54:29;21.05;;;9.13;;
52104;SDS011;38103;42.776;23.112;2023-04-24T04:56:54;17.35;;;8.63;;
52104;SDS011;38103;42.776;23.112;2023-04-24T04:59:20;17.30;;;8.82;;
52104;SDS011;38103;42.776;23.112;2023-04-24T05:01:45;17.00;;;8.07;;
52104;SDS011;38103;42.776;23.112;2023-04-24T05:04:11;15.35;;;8.23;;
52104;SDS011;38103;42.776;23.112;2023-04-24T05:06:36;15.70;;;8.00;;
52104;SDS011;38103;42.776;23.112;2023-04-24T05:09:02;14.57;;;7.85;;
52104;SDS011;38103;42.776;23.112;2023-04-24T05:11:28;15.32;;;8.02;;
52104;SDS011;38103;42.776;23.112;2023-04-24T05:13:54;16.58;;;8.18;;
52104;SDS011;38103;42.776;23.112;2023-04-24T05:16:20;19.27;;;8.10;;
52104;SDS011;38103;42.776;23.112;2023-04-24T05:18:45;14.70;;;7.70;;
52104;SDS011;38103;42.776;23.112;2023-04-24T05:21:10;15.55;;;7.65;;
52104;SDS011;38103;42.776;23.112;2023-04-24T05:23:36;16.30;;;7.20;;
52104;SDS011;38103;42.776;23.112;2023-04-24T05:26:01;15.38;;;8.25;;
52104;SDS011;38103;42.776;23.112;2023-04-24T05:28:27;13.20;;;7.50;;
52104;SDS011;38103;42.776;23.112;2023-04-24T05:30:55;18.52;;;8.90;;
52104;SDS011;38103;42.776;23.112;2023-04-24T05:33:21;17.85;;;7.20;;
52104;SDS011;38103;42.776;23.112;2023-04-24T05:35:47;18.20;;;7.63;;
52104;SDS011;38103;42.776;23.112;2023-04-24T05:38:13;15.88;;;7.00;;
52104;SDS011;38103;42.776;23.112;2023-04-24T05:40:39;13.10;;;6.70;;
52104;SDS011;38103;42.776;23.112;2023-04-24T05:43:05;13.55;;;6.97;;
52104;SDS011;38103;42.776;23.112;2023-04-24T05:45:30;11.85;;;6.25;;
52104;SDS011;38103;42.776;23.112;2023-04-24T05:47:56;18.42;;;7.22;;
52104;SDS011;38103;42.776;23.112;2023-04-24T05:50:22;19.02;;;7.18;;
52104;SDS011;38103;42.776;23.112;2023-04-24T05:52:47;16.98;;;6.80;;
52104;SDS011;38103;42.776;23.112;2023-04-24T05:55:12;15.07;;;6.25;;
52104;SDS011;38103;42.776;23.112;2023-04-24T05:57:38;14.35;;;6.60;;
52104;SDS011;38103;42.776;23.112;2023-04-24T06:00:04;15.70;;;7.28;;
52104;SDS011;38103;42.776;23.112;2023-04-24T06:02:30;18.15;;;7.45;;
52104;SDS011;38103;42.776;23.112;2023-04-24T06:04:57;16.27;;;6.57;;
52104;SDS011;38103;42.776;23.112;2023-04-24T06:07:24;14.45;;;6.95;;
52104;SDS011;38103;42.776;23.112;2023-04-24T06:09:51;16.55;;;6.85;;
52104;SDS011;38103;42.776;23.112;2023-04-24T06:12:17;16.83;;;7.20;;
52104;SDS011;38103;42.776;23.112;2023-04-24T06:14:42;16.35;;;7.45;;
52104;SDS011;38103;42.776;23.112;2023-04-24T06:17:08;20.48;;;7.20;;
52104;SDS011;38103;42.776;23.112;2023-04-24T06:19:33;16.17;;;7.13;;
52104;SDS011;38103;42.776;23.112;2023-04-24T06:21:59;16.20;;;7.07;;
52104;SDS011;38103;42.776;23.112;2023-04-24T06:24:27;20.05;;;7.10;;
52104;SDS011;38103;42.776;23.112;2023-04-24T06:26:53;16.52;;;7.03;;
52104;SDS011;38103;42.776;23.112;2023-04-24T06:29:19;16.42;;;6.40;;
52104;SDS011;38103;42.776;23.112;2023-04-24T06:31:44;18.63;;;6.80;;
52104;SDS011;38103;42.776;23.112;2023-04-24T06:34:10;17.00;;;7.13;;
52104;SDS011;38103;42.776;23.112;2023-04-24T06:36:35;19.27;;;7.47;;
52104;SDS011;38103;42.776;23.112;2023-04-24T06:39:01;14.98;;;6.45;;
52104;SDS011;38103;42.776;23.112;2023-04-24T06:41:26;16.98;;;7.13;;
52104;SDS011;38103;42.776;23.112;2023-04-24T06:43:52;15.45;;;6.55;;
52104;SDS011;38103;42.776;23.112;2023-04-24T06:46:18;14.65;;;6.60;;
52104;SDS011;38103;42.776;23.112;2023-04-24T06:48:43;18.08;;;6.78;;
52104;SDS011;38103;42.776;23.112;2023-04-24T06:51:09;14.07;;;6.35;;
52104;SDS011;38103;42.776;23.112;2023-04-24T06:53:35;15.63;;;7.18;;
52104;SDS011;38103;42.776;23.112;2023-04-24T06:56:00;14.82;;;7.03;;
52104;SDS011;38103;42.776;23.112;2023-04-24T06:58:26;15.25;;;7.05;;
52104;SDS011;38103;42.776;23.112;2023-04-24T07:00:51;15.70;;;7.57;;
52104;SDS011;38103;42.776;23.112;2023-04-24T07:03:16;15.27;;;6.97;;
52104;SDS011;38103;42.776;23.112;2023-04-24T07:05:42;22.15;;;7.43;;
52104;SDS011;38103;42.776;23.112;2023-04-24T07:08:07;15.05;;;7.25;;
52104;SDS011;38103;42.776;23.112;2023-04-24T07:10:33;15.60;;;7.65;;
52104;SDS011;38103;42.776;23.112;2023-04-24T07:13:00;15.63;;;7.80;;
52104;SDS011;38103;42.776;23.112;2023-04-24T07:15:26;19.77;;;7.38;;
52104;SDS011;38103;42.776;23.112;2023-04-24T07:17:52;13.48;;;7.20;;
52104;SDS011;38103;42.776;23.112;2023-04-24T07:20:17;16.83;;;6.93;;
52104;SDS011;38103;42.776;23.112;2023-04-24T07:22:43;16.83;;;6.85;;
52104;SDS011;38103;42.776;23.112;2023-04-24T07:25:08;15.52;;;7.07;;
52104;SDS011;38103;42.776;23.112;2023-04-24T07:27:34;14.25;;;7.13;;
52104;SDS011;38103;42.776;23.112;2023-04-24T07:30:01;16.35;;;7.25;;
52104;SDS011;38103;42.776;23.112;2023-04-24T07:32:27;16.05;;;6.78;;
52104;SDS011;38103;42.776;23.112;2023-04-24T07:34:52;15.30;;;7.20;;
52104;SDS011;38103;42.776;23.112;2023-04-24T07:37:17;14.00;;;6.65;;
52104;SDS011;38103;42.776;23.112;2023-04-24T07:39:43;16.25;;;7.60;;
52104;SDS011;38103;42.776;23.112;2023-04-24T07:42:08;14.73;;;6.85;;
52104;SDS011;38103;42.776;23.112;2023-04-24T07:44:34;16.23;;;6.90;;
52104;SDS011;38103;42.776;23.112;2023-04-24T07:46:59;15.35;;;7.20;;
52104;SDS011;38103;42.776;23.112;2023-04-24T07:49:24;15.02;;;7.45;;
52104;SDS011;38103;42.776;23.112;2023-04-24T07:51:50;18.38;;;7.57;;
52104;SDS011;38103;42.776;23.112;2023-04-24T07:54:15;13.38;;;6.63;;
52104;SDS011;38103;42.776;23.112;2023-04-24T07:56:41;17.52;;;7.35;;
52104;SDS011;38103;42.776;23.112;2023-04-24T07:59:09;14.25;;;7.13;;
52104;SDS011;38103;42.776;23.112;2023-04-24T08:01:35;14.30;;;7.30;;
52104;SDS011;38103;42.776;23.112;2023-04-24T08:04:01;15.90;;;7.20;;
52104;SDS011;38103;42.776;23.112;2023-04-24T08:06:27;14.45;;;7.30;;
52104;SDS011;38103;42.776;23.112;2023-04-24T08:08:55;19.80;;;7.20;;
52104;SDS011;38103;42.776;23.112;2023-04-24T08:11:21;16.05;;;7.57;;
52104;SDS011;38103;42.776;23.112;2023-04-24T08:13:46;15.98;;;7.03;;
52104;SDS011;38103;42.776;23.112;2023-04-24T08:16:11;13.77;;;6.60;;
52104;SDS011;38103;42.776;23.112;2023-04-24T08:18:37;14.20;;;6.88;;
52104;SDS011;38103;42.776;23.112;2023-04-24T08:21:03;14.27;;;6.95;;
52104;SDS011;38103;42.776;23.112;2023-04-24T08:23:28;14.15;;;7.00;;
52104;SDS011;38103;42.776;23.112;2023-04-24T08:25:54;14.20;;;7.15;;
52104;SDS011;38103;42.776;23.112;2023-04-24T08:28:20;14.20;;;7.13;;
52104;SDS011;38103;42.776;23.112;2023-04-24T08:30:46;17.02;;;7.25;;
52104;SDS011;38103;42.776;23.112;2023-04-24T08:33:13;14.05;;;6.47;;
52104;SDS011;38103;42.776;23.112;2023-04-24T08:35:39;18.17;;;7.18;;
52104;SDS011;38103;42.776;23.112;2023-04-24T08:38:04;16.73;;;7.00;;
52104;SDS011;38103;42.776;23.112;2023-04-24T08:40:31;16.27;;;7.05;;
52104;SDS011;38103;42.776;23.112;2023-04-24T08:42:59;13.95;;;7.45;;
52104;SDS011;38103;42.776;23.112;2023-04-24T08:45:25;16.77;;;6.97;;
52104;SDS011;38103;42.776;23.112;2023-04-24T08:47:51;13.60;;;6.70;;
52104;SDS011;38103;42.776;23.112;2023-04-24T08:50:18;12.88;;;6.90;;
52104;SDS011;38103;42.776;23.112;2023-04-24T08:52:44;13.82;;;7.07;;
52104;SDS011;38103;42.776;23.112;2023-04-24T08:55:09;16.08;;;6.28;;
52104;SDS011;38103;42.776;23.112;2023-04-24T08:57:35;15.27;;;6.80;;
52104;SDS011;38103;42.776;23.112;2023-04-24T09:00:03;12.80;;;6.65;;
52104;SDS011;38103;42.776;23.112;2023-04-24T09:02:30;13.05;;;6.10;;
52104;SDS011;38103;42.776;23.112;2023-04-24T09:04:57;20.90;;;6.90;;
52104;SDS011;38103;42.776;23.112;2023-04-24T09:07:24;14.60;;;6.55;;
52104;SDS011;38103;42.776;23.112;2023-04-24T09:09:52;14.80;;;6.70;;
52104;SDS011;38103;42.776;23.112;2023-04-24T09:12:18;18.70;;;7.22;;
52104;SDS011;38103;42.776;23.112;2023-04-24T09:14:44;16.52;;;6.90;;
52104;SDS011;38103;42.776;23.112;2023-04-24T09:17:10;16.05;;;6.60;;
52104;SDS011;38103;42.776;23.112;2023-04-24T09:19:36;14.10;;;7.00;;
52104;SDS011;38103;42.776;23.112;2023-04-24T09:22:05;13.65;;;6.93;;
52104;SDS011;38103;42.776;23.112;2023-04-24T09:24:32;18.88;;;6.95;;
52104;SDS011;38103;42.776;23.112;2023-04-24T09:27:00;19.02;;;6.93;;
52104;SDS011;38103;42.776;23.112;2023-04-24T09:29:29;16.98;;;6.95;;
52104;SDS011;38103;42.776;23.112;2023-04-24T09:31:54;14.75;;;7.10;;
52104;SDS011;38103;42.776;23.112;2023-04-24T09:34:23;14.50;;;6.10;;
52104;SDS011;38103;42.776;23.112;2023-04-24T09:36:52;16.02;;;6.63;;
52104;SDS011;38103;42.776;23.112;2023-04-24T09:39:19;15.93;;;6.95;;
52104;SDS011;38103;42.776;23.112;2023-04-24T09:41:53;15.98;;;6.65;;
52104;SDS011;38103;42.776;23.112;2023-04-24T09:44:27;15.27;;;6.40;;
52104;SDS011;38103;42.776;23.112;2023-04-24T09:46:57;14.30;;;6.43;;
52104;SDS011;38103;42.776;23.112;2023-04-24T09:49:27;14.85;;;6.43;;
52104;SDS011;38103;42.776;23.112;2023-04-24T09:54:34;13.32;;;6.07;;
52104;SDS011;38103;42.776;23.112;2023-04-24T09:57:01;14.25;;;6.18;;
52104;SDS011;38103;42.776;23.112;2023-04-24T09:59:27;16.77;;;6.85;;
52104;SDS011;38103;42.776;23.112;2023-04-24T10:01:52;14.73;;;6.18;;
52104;SDS011;38103;42.776;23.112;2023-04-24T10:04:19;17.77;;;6.43;;
52104;SDS011;38103;42.776;23.112;2023-04-24T10:06:46;17.45;;;6.18;;
52104;SDS011;38103;42.776;23.112;2023-04-24T10:09:14;16.35;;;6.82;;
52104;SDS011;38103;42.776;23.112;2023-04-24T10:11:43;17.40;;;6.55;;
52104;SDS011;38103;42.776;23.112;2023-04-24T10:14:12;14.98;;;5.70;;
52104;SDS011;38103;42.776;23.112;2023-04-24T10:16:39;14.75;;;6.68;;
52104;SDS011;38103;42.776;23.112;2023-04-24T10:19:05;14.77;;;6.70;;
52104;SDS011;38103;42.776;23.112;2023-04-24T10:21:31;13.60;;;5.88;;
52104;SDS011;38103;42.776;23.112;2023-04-24T10:23:57;14.30;;;5.53;;
52104;SDS011;38103;42.776;23.112;2023-04-24T10:26:25;16.13;;;5.20;;
52104;SDS011;38103;42.776;23.112;2023-04-24T10:28:51;14.18;;;5.53;;
52104;SDS011;38103;42.776;23.112;2023-04-24T10:31:17;11.18;;;5.40;;
52104;SDS011;38103;42.776;23.112;2023-04-24T10:33:43;10.13;;;4.65;;
52104;SDS011;38103;42.776;23.112;2023-04-24T10:36:11;14.45;;;5.18;;
52104;SDS011;38103;42.776;23.112;2023-04-24T10:38:39;12.05;;;4.53;;
52104;SDS011;38103;42.776;23.112;2023-04-24T10:41:11;12.20;;;4.60;;
52104;SDS011;38103;42.776;23.112;2023-04-24T10:44:06;16.13;;;4.50;;
52104;SDS011;38103;42.776;23.112;2023-04-24T10:46:35;12.65;;;5.90;;
52104;SDS011;38103;42.776;23.112;2023-04-24T10:49:04;16.83;;;5.63;;
52104;SDS011;38103;42.776;23.112;2023-04-24T10:51:52;11.33;;;4.53;;
52104;SDS011;38103;42.776;23.112;2023-04-24T10:54:25;12.38;;;4.78;;
52104;SDS011;38103;42.776;23.112;2023-04-24T10:59:27;10.13;;;4.35;;
52104;SDS011;38103;42.776;23.112;2023-04-24T11:02:00;14.40;;;4.30;;
52104;SDS011;38103;42.776;23.112;2023-04-24T11:04:29;13.70;;;4.47;;
52104;SDS011;38103;42.776;23.112;2023-04-24T11:06:56;12.70;;;4.53;;
52104;SDS011;38103;42.776;23.112;2023-04-24T11:09:22;11.30;;;4.47;;
52104;SDS011;38103;42.776;23.112;2023-04-24T11:11:47;13.75;;;5.07;;
52104;SDS011;38103;42.776;23.112;2023-04-24T11:14:15;10.75;;;4.93;;
52104;SDS011;38103;42.776;23.112;2023-04-24T11:21:45;10.25;;;4.47;;
52104;SDS011;38103;42.776;23.112;2023-04-24T11:24:23;12.95;;;4.80;;
52104;SDS011;38103;42.776;23.112;2023-04-24T11:29:41;11.55;;;4.65;;
52104;SDS011;38103;42.776;23.112;2023-04-24T11:32:41;14.52;;;4.82;;
52104;SDS011;38103;42.776;23.112;2023-04-24T11:35:03;10.73;;;4.82;;
52104;SDS011;38103;42.776;23.112;2023-04-24T11:38:03;9.95;;;4.70;;
52104;SDS011;38103;42.776;23.112;2023-04-24T11:40:30;11.00;;;4.90;;
52104;SDS011;38103;42.776;23.112;2023-04-24T11:42:56;10.00;;;4.47;;
52104;SDS011;38103;42.776;23.112;2023-04-24T11:45:25;9.57;;;4.55;;
52104;SDS011;38103;42.776;23.112;2023-04-24T11:47:53;11.05;;;5.15;;
52104;SDS011;38103;42.776;23.112;2023-04-24T11:50:21;10.98;;;5.00;;
52104;SDS011;38103;42.776;23.112;2023-04-24T11:52:48;10.30;;;4.72;;
52104;SDS011;38103;42.776;23.112;2023-04-24T11:57:39;9.93;;;4.18;;
52104;SDS011;38103;42.776;23.112;2023-04-24T12:00:14;10.57;;;4.40;;
52104;SDS011;38103;42.776;23.112;2023-04-24T12:02:41;13.27;;;4.80;;
52104;SDS011;38103;42.776;23.112;2023-04-24T12:05:06;12.98;;;4.97;;
52104;SDS011;38103;42.776;23.112;2023-04-24T12:07:32;10.48;;;5.00;;
52104;SDS011;38103;42.776;23.112;2023-04-24T12:10:08;11.13;;;4.38;;
52104;SDS011;38103;42.776;23.112;2023-04-24T12:12:34;11.45;;;5.20;;
52104;SDS011;38103;42.776;23.112;2023-04-24T12:15:00;12.43;;;5.35;;
52104;SDS011;38103;42.776;23.112;2023-04-24T12:17:30;12.98;;;5.75;;
52104;SDS011;38103;42.776;23.112;2023-04-24T12:20:01;11.43;;;6.07;;
52104;SDS011;38103;42.776;23.112;2023-04-24T12:22:42;13.77;;;6.00;;
52104;SDS011;38103;42.776;23.112;2023-04-24T12:25:11;10.80;;;5.63;;
52104;SDS011;38103;42.776;23.112;2023-04-24T12:27:36;10.90;;;5.55;;
52104;SDS011;38103;42.776;23.112;2023-04-24T12:30:03;12.90;;;5.00;;
52104;SDS011;38103;42.776;23.112;2023-04-24T12:32:30;11.20;;;5.50;;
52104;SDS011;38103;42.776;23.112;2023-04-24T12:34:56;12.10;;;5.07;;
52104;SDS011;38103;42.776;23.112;2023-04-24T12:37:25;12.00;;;5.30;;
52104;SDS011;38103;42.776;23.112;2023-04-24T12:39:58;12.60;;;5.07;;
52104;SDS011;38103;42.776;23.112;2023-04-24T12:42:41;11.27;;;5.38;;
52104;SDS011;38103;42.776;23.112;2023-04-24T12:45:08;11.00;;;5.25;;
52104;SDS011;38103;42.776;23.112;2023-04-24T12:47:34;11.93;;;5.30;;
52104;SDS011;38103;42.776;23.112;2023-04-24T12:50:00;13.10;;;5.50;;
52104;SDS011;38103;42.776;23.112;2023-04-24T12:52:27;11.48;;;5.00;;
52104;SDS011;38103;42.776;23.112;2023-04-24T12:54:55;10.48;;;4.80;;
52104;SDS011;38103;42.776;23.112;2023-04-24T12:57:22;15.07;;;5.25;;
52104;SDS011;38103;42.776;23.112;2023-04-24T12:59:49;9.90;;;4.80;;
52104;SDS011;38103;42.776;23.112;2023-04-24T13:02:15;11.32;;;5.03;;
52104;SDS011;38103;42.776;23.112;2023-04-24T13:04:45;10.40;;;4.70;;
52104;SDS011;38103;42.776;23.112;2023-04-24T13:07:12;12.20;;;4.80;;
52104;SDS011;38103;42.776;23.112;2023-04-24T13:09:38;13.35;;;4.97;;
52104;SDS011;38103;42.776;23.112;2023-04-24T13:12:04;11.95;;;4.80;;
52104;SDS011;38103;42.776;23.112;2023-04-24T13:14:30;11.35;;;4.43;;
52104;SDS011;38103;42.776;23.112;2023-04-24T13:16:56;12.20;;;4.63;;
52104;SDS011;38103;42.776;23.112;2023-04-24T13:19:23;11.70;;;4.50;;
52104;SDS011;38103;42.776;23.112;2023-04-24T13:21:50;9.70;;;4.22;;
52104;SDS011;38103;42.776;23.112;2023-04-24T13:24:16;10.68;;;4.47;;
52104;SDS011;38103;42.776;23.112;2023-04-24T13:26:42;10.70;;;4.55;;
52104;SDS011;38103;42.776;23.112;2023-04-24T13:29:07;9.65;;;3.95;;
52104;SDS011;38103;42.776;23.112;2023-04-24T13:31:33;11.27;;;4.20;;
52104;SDS011;38103;42.776;23.112;2023-04-24T13:33:58;10.60;;;4.25;;
52104;SDS011;38103;42.776;23.112;2023-04-24T13:36:24;10.13;;;4.30;;
52104;SDS011;38103;42.776;23.112;2023-04-24T13:38:50;11.77;;;4.30;;
52104;SDS011;38103;42.776;23.112;2023-04-24T13:41:15;10.73;;;4.40;;
52104;SDS011;38103;42.776;23.112;2023-04-24T13:43:41;10.43;;;4.20;;
52104;SDS011;38103;42.776;23.112;2023-04-24T13:46:07;11.05;;;4.80;;
52104;SDS011;38103;42.776;23.112;2023-04-24T13:48:33;10.95;;;4.15;;
52104;SDS011;38103;42.776;23.112;2023-04-24T13:50:58;12.32;;;4.60;;
52104;SDS011;38103;42.776;23.112;2023-04-24T13:53:24;10.57;;;4.43;;
52104;SDS011;38103;42.776;23.112;2023-04-24T13:55:49;12.95;;;4.68;;
52104;SDS011;38103;42.776;23.112;2023-04-24T13:58:14;10.75;;;4.35;;
52104;SDS011;38103;42.776;23.112;2023-04-24T14:00:40;10.82;;;4.70;;
52104;SDS011;38103;42.776;23.112;2023-04-24T14:03:05;18.83;;;5.03;;
52104;SDS011;38103;42.776;23.112;2023-04-24T14:05:31;10.73;;;4.28;;
52104;SDS011;38103;42.776;23.112;2023-04-24T14:07:56;15.40;;;4.90;;
52104;SDS011;38103;42.776;23.112;2023-04-24T14:10:21;11.25;;;4.57;;
52104;SDS011;38103;42.776;23.112;2023-04-24T14:12:47;10.65;;;4.78;;
52104;SDS011;38103;42.776;23.112;2023-04-24T14:15:13;13.38;;;5.43;;
52104;SDS011;38103;42.776;23.112;2023-04-24T14:17:38;10.25;;;4.60;;
52104;SDS011;38103;42.776;23.112;2023-04-24T14:20:04;12.57;;;5.35;;
52104;SDS011;38103;42.776;23.112;2023-04-24T14:22:31;12.63;;;4.95;;
52104;SDS011;38103;42.776;23.112;2023-04-24T14:24:57;12.02;;;5.28;;
52104;SDS011;38103;42.776;23.112;2023-04-24T14:27:24;11.98;;;4.85;;
52104;SDS011;38103;42.776;23.112;2023-04-24T14:29:50;11.52;;;5.20;;